Accueil
METAR-TAF:

METAR-TAF

Aéroports :

St Athan, Pays de Galles

latitude: 51-24N, longitude: 003-26W, altitude: 50 m

Observation

Le bulletin a été fait il y a 1 heure et 5 minutes, à 02:50 UTC
Vent 14 kt de nord-est
Température 2°C
Humidité 87%
Pression 979 hPa
Visibilité 10 km ou plus

METAR: EGDX 110250Z AUTO 04014KT 9999 OVC013/// 02/M00 Q0979

Heure: 03:55 (03:55 UTC)

Prévision

Le bulletin a été fait il y a 14 heures et 11 minutes, à 13:44 UTC
Prévision valable du 10 à 15 UTC au 10 à 18 UTC
Vent 8 kt de est/nord-est
Visibilité: 8000 m
Quelques nuages à une hauteur de 1000 ft
Nuages fragmentés à une hauteur de 2000 ft
pluie faible
Probabilité 30% :
Temporairement
du 10 à 15 UTC au 10 à 18 UTC
Visibilité: 1500 m
Nuages fragmentés à une hauteur de 400 ft
neige

TAF: EGDX 101344Z 1015/1018 06008KT 8000 -RA FEW010 BKN020 PROB30 TEMPO 1015/1018 1500 SN BKN004

Observations et prévisions météorologiques de plus de 4000 aéroports (messages METAR et TAF).

Les stations disponibles sont représentées par des disques jaunes et rouges sur la carte.

Passer la souris dessus pour voir le nom de la station.

Cliquer dessus pour voir les observations et prévisions météorologiques.

Pour changer de carte: cliquez sur les boutons verts avec une croix noire pour zoomer, sur le bouton vert avec un tiret pour effectuer un zoom arrière, ou sur les flèches vertes pour les cartes adjacentes.


METAR-TAF: